Time;durP1;ratioP1;P1;durP2;ratioP2;P2;SDS_P1;SDS_P2;PMS_P1;PMS_P2;Temp;Humidity;BMP_temperature;BMP_pressure;BME280_temperature;BME280_humidity;BME280_pressure;Samples;Min_cycle;Max_cycle;Signal;HPM_P1;HPM_P2
2021/05/28 00:01:45;;;;;;;1.02;0.70;;;486.50;1459.20;;;;;;5053394;28;20029;-60
2021/05/28 00:04:10;;;;;;;1.63;0.75;;;486.50;1459.20;;;;;;5053373;28;20377;-61
2021/05/28 00:06:36;;;;;;;2.75;0.80;;;461.70;1459.20;;;;;;5053201;28;20108;-60
2021/05/28 00:09:04;;;;;;;2.92;0.82;;;461.70;1459.20;;;;;;5052991;28;20119;-60
2021/05/28 00:11:29;;;;;;;5.20;1.25;;;461.60;1484.80;;;;;;5053081;28;20025;-74
2021/05/28 00:13:55;;;;;;;3.35;1.10;;;461.60;1484.80;;;;;;5053017;28;20538;-60
2021/05/28 00:16:21;;;;;;;2.75;1.00;;;461.50;1484.80;;;;;;5053085;28;20029;-69
2021/05/28 00:18:47;;;;;;;2.75;1.00;;;461.60;1484.80;;;;;;5052995;28;20059;-73
2021/05/28 00:21:13;;;;;;;3.00;1.25;;;461.50;1484.80;;;;;;5052917;28;20067;-61
2021/05/28 00:23:39;;;;;;;1.80;0.80;;;461.50;1484.80;;;;;;5053006;28;20029;-65
2021/05/28 00:26:04;;;;;;;2.45;0.82;;;461.40;1510.40;;;;;;5053190;28;20025;-75
2021/05/28 00:28:30;;;;;;;5.03;1.20;;;461.50;1510.40;;;;;;5052874;28;20021;-61
2021/05/28 00:30:56;;;;;;;2.42;1.00;;;461.50;1510.40;;;;;;5051561;28;20090;-75
2021/05/28 00:33:22;;;;;;;3.92;1.05;;;461.50;1510.40;;;;;;5053174;28;20025;-61
2021/05/28 00:35:48;;;;;;;2.67;1.13;;;461.60;1510.40;;;;;;5052856;28;20033;-79
2021/05/28 00:38:14;;;;;;;2.17;0.90;;;461.50;1510.40;;;;;;5052916;28;20425;-62
2021/05/28 00:40:39;;;;;;;2.78;1.10;;;461.50;1510.40;;;;;;5052569;28;20057;-60
2021/05/28 00:43:05;;;;;;;1.85;0.88;;;461.50;1536.00;;;;;;5052814;28;20049;-74
2021/05/28 00:45:31;;;;;;;4.97;1.10;;;461.50;1536.00;;;;;;5052758;28;20040;-60
2021/05/28 00:47:57;;;;;;;3.00;1.10;;;461.50;1510.40;;;;;;5052783;28;20021;-60
2021/05/28 00:50:23;;;;;;;4.35;1.02;;;461.60;1536.00;;;;;;5052818;28;20554;-61
2021/05/28 00:52:56;;;;;;;3.42;1.15;;;461.50;1536.00;;;;;;5052713;28;20497;-62
2021/05/28 00:55:22;;;;;;;4.13;1.37;;;461.40;1536.00;;;;;;5055676;28;20481;-60
2021/05/28 00:57:48;;;;;;;2.25;1.17;;;461.30;1561.60;;;;;;5056577;28;20262;-59
2021/05/28 01:00:14;;;;;;;4.32;1.20;;;461.40;1536.00;;;;;;5056310;28;20029;-79
2021/05/28 01:02:40;;;;;;;4.25;1.30;;;461.30;1561.60;;;;;;5056216;28;20108;-60
2021/05/28 01:05:06;;;;;;;3.70;1.27;;;461.30;1561.60;;;;;;5056161;28;20112;-74
2021/05/28 01:07:32;;;;;;;1.83;1.27;;;461.30;1587.20;;;;;;5056165;28;20029;-60
2021/05/28 01:09:58;;;;;;;4.03;1.80;;;461.30;1587.20;;;;;;5055891;28;20037;-67
2021/05/28 01:12:24;;;;;;;3.95;1.60;;;461.30;1587.20;;;;;;5056307;28;20390;-62
2021/05/28 01:14:50;;;;;;;6.05;1.77;;;461.20;1612.80;;;;;;5056042;28;20025;-60
2021/05/28 01:17:17;;;;;;;4.63;2.35;;;461.30;1587.20;;;;;;5055961;28;20017;-60
2021/05/28 01:19:43;;;;;;;6.88;2.00;;;461.20;1612.80;;;;;;5056161;28;20032;-76
2021/05/28 01:22:09;;;;;;;5.18;2.00;;;461.10;1612.80;;;;;;5055844;28;20377;-69
2021/05/28 01:24:35;;;;;;;3.80;1.85;;;461.00;1638.40;;;;;;5055755;28;20029;-76
2021/05/28 01:27:01;;;;;;;5.97;1.73;;;461.00;1638.40;;;;;;5056349;28;20056;-60
2021/05/28 01:29:27;;;;;;;2.53;1.67;;;461.00;1638.40;;;;;;5055969;28;20053;-60
2021/05/28 01:31:53;;;;;;;3.67;2.00;;;460.90;1638.40;;;;;;5055894;28;20028;-60
2021/05/28 01:34:19;;;;;;;5.57;1.92;;;460.90;1638.40;;;;;;5055592;28;20029;-60
2021/05/28 01:36:45;;;;;;;7.05;1.80;;;460.90;1638.40;;;;;;5055523;28;20119;-61
2021/05/28 01:39:12;;;;;;;2.63;1.77;;;460.80;1664.00;;;;;;5055375;28;20071;-60
2021/05/28 01:41:38;;;;;;;6.90;2.65;;;436.10;1638.40;;;;;;5055416;28;20032;-59
2021/05/28 01:44:08;;;;;;;6.07;2.63;;;435.80;1689.60;;;;;;5055394;28;20025;-73
2021/05/28 01:46:35;;;;;;;5.68;2.60;;;435.60;1715.20;;;;;;5055672;28;20025;-73
2021/05/28 01:49:02;;;;;;;3.65;2.13;;;435.70;1689.60;;;;;;5055300;28;20060;-60
2021/05/28 01:51:29;;;;;;;3.55;1.70;;;435.80;1689.60;;;;;;5055238;28;20036;-60
2021/05/28 01:53:55;;;;;;;4.43;2.15;;;435.70;1715.20;;;;;;5055247;28;20536;-60
2021/05/28 01:56:22;;;;;;;4.68;2.28;;;435.70;1715.20;;;;;;5055515;28;20044;-60
2021/05/28 01:58:48;;;;;;;3.35;2.10;;;435.60;1715.20;;;;;;5055186;28;20039;-60
2021/05/28 02:01:14;;;;;;;3.63;2.15;;;435.40;1715.20;;;;;;5055210;28;20021;-72
2021/05/28 02:03:39;;;;;;;4.30;2.30;;;435.40;1715.20;;;;;;5055065;28;20469;-61
2021/05/28 02:06:05;;;;;;;3.53;2.10;;;435.30;1715.20;;;;;;5054167;28;20017;-60
2021/05/28 02:08:31;;;;;;;4.57;1.70;;;410.50;1740.80;;;;;;5054910;28;20059;-75
2021/05/28 02:10:57;;;;;;;3.20;2.03;;;410.50;1740.80;;;;;;5054760;28;20040;-60
2021/05/28 02:13:23;;;;;;;8.57;2.10;;;435.30;1715.20;;;;;;5054891;28;20036;-60
2021/05/28 02:15:49;;;;;;;3.13;2.05;;;435.20;1715.20;;;;;;5054887;28;20025;-72
2021/05/28 02:18:15;;;;;;;4.05;1.80;;;435.30;1689.60;;;;;;5054848;28;20481;-60
2021/05/28 02:20:41;;;;;;;4.63;1.85;;;435.20;1689.60;;;;;;5054721;28;20448;-73
2021/05/28 02:23:07;;;;;;;4.45;1.90;;;410.40;1689.60;;;;;;5054641;28;20100;-74
2021/05/28 02:25:33;;;;;;;4.90;1.63;;;410.50;1689.60;;;;;;5054690;28;20060;-60
2021/05/28 02:27:58;;;;;;;3.28;2.05;;;410.50;1689.60;;;;;;5054719;28;20112;-60
2021/05/28 02:30:24;;;;;;;7.85;3.97;;;435.20;1689.60;;;;;;5054944;28;20120;-73
2021/05/28 02:32:50;;;;;;;6.85;2.92;;;410.50;1689.60;;;;;;5054739;28;20021;-61
2021/05/28 02:35:16;;;;;;;5.93;1.90;;;435.20;1664.00;;;;;;5054418;28;20519;-60
2021/05/28 02:37:42;;;;;;;4.85;1.80;;;410.40;1689.60;;;;;;5053072;28;20571;-60
2021/05/28 02:40:09;;;;;;;5.78;1.95;;;410.40;1689.60;;;;;;5034388;28;20064;-75
2021/05/28 02:42:36;;;;;;;4.60;1.50;;;410.10;1715.20;;;;;;5052477;28;20090;-61
2021/05/28 02:45:05;;;;;;;3.10;1.55;;;410.30;1689.60;;;;;;5052662;28;20098;-62
2021/05/28 02:47:30;;;;;;;4.22;1.40;;;410.30;1689.60;;;;;;5052276;28;20056;-61
2021/05/28 02:49:56;;;;;;;4.38;1.63;;;410.30;1689.60;;;;;;5052177;28;20072;-61
2021/05/28 02:52:22;;;;;;;4.32;1.65;;;410.20;1689.60;;;;;;5052674;28;20033;-61
2021/05/28 02:54:48;;;;;;;3.78;1.45;;;410.10;1689.60;;;;;;5054142;28;20036;-75
2021/05/28 02:57:14;;;;;;;4.82;1.40;;;410.30;1664.00;;;;;;5054109;28;20029;-60
2021/05/28 02:59:40;;;;;;;3.65;1.30;;;410.30;1664.00;;;;;;5054243;28;20028;-59
2021/05/28 03:02:06;;;;;;;1.95;1.10;;;410.30;1664.00;;;;;;5054001;28;20037;-73
2021/05/28 03:04:32;;;;;;;2.10;1.23;;;410.20;1664.00;;;;;;5054083;28;20350;-60
2021/05/28 03:06:58;;;;;;;2.83;1.10;;;410.10;1664.00;;;;;;5053842;28;20039;-60
2021/05/28 03:09:24;;;;;;;3.53;1.10;;;410.10;1664.00;;;;;;5053740;28;20025;-65
2021/05/28 03:11:50;;;;;;;2.25;1.02;;;410.10;1664.00;;;;;;5053751;28;20381;-60
2021/05/28 03:14:17;;;;;;;3.72;1.45;;;410.00;1664.00;;;;;;5053763;28;20358;-74
2021/05/28 03:16:43;;;;;;;3.80;1.90;;;410.20;1664.00;;;;;;5053578;28;20484;-61
2021/05/28 03:19:44;;;;;;;5.95;1.27;;;410.30;1638.40;;;;;;5054050;28;20079;-68
2021/05/28 03:24:45;;;;;;;3.80;1.42;;;410.10;1664.00;;;;;;5053962;28;20043;-60
2021/05/28 03:27:11;;;;;;;4.35;1.75;;;410.10;1638.40;;;;;;5053737;28;20470;-60
2021/05/28 03:29:38;;;;;;;2.80;1.42;;;410.30;1612.80;;;;;;5053766;28;20124;-60
2021/05/28 03:32:04;;;;;;;3.67;1.83;;;410.10;1638.40;;;;;;5053464;28;20029;-60
2021/05/28 03:34:31;;;;;;;5.68;1.42;;;410.20;1612.80;;;;;;5053771;28;20056;-60
2021/05/28 03:36:59;;;;;;;4.00;1.33;;;409.90;1638.40;;;;;;5053309;28;20060;-61
2021/05/28 03:39:25;;;;;;;2.20;1.00;;;410.10;1638.40;;;;;;5053117;28;20045;-73
2021/05/28 03:41:51;;;;;;;5.63;1.58;;;410.10;1638.40;;;;;;5053331;28;20047;-60
2021/05/28 03:44:16;;;;;;;3.90;1.40;;;410.20;1612.80;;;;;;5053361;28;20425;-73
2021/05/28 03:46:42;;;;;;;4.30;1.55;;;410.20;1638.40;;;;;;5053235;28;20070;-60
2021/05/28 03:49:08;;;;;;;5.85;1.30;;;410.20;1638.40;;;;;;5053076;28;20021;-75
2021/05/28 03:51:34;;;;;;;0.80;0.68;;;410.30;1638.40;;;;;;5053134;28;20025;-71
2021/05/28 03:54:00;;;;;;;4.22;1.33;;;410.30;1638.40;;;;;;5053153;28;20025;-60
2021/05/28 03:56:26;;;;;;;1.83;1.27;;;410.30;1689.60;;;;;;5053106;28;20036;-74
2021/05/28 03:58:51;;;;;;;5.60;1.00;;;410.20;1740.80;;;;;;5053110;28;20033;-74
2021/05/28 04:01:17;;;;;;;6.40;1.35;;;410.10;1792.00;;;;;;5052877;28;20543;-74
2021/05/28 04:03:43;;;;;;;5.63;1.50;;;410.00;1817.60;;;;;;5053035;28;20031;-60
2021/05/28 04:06:09;;;;;;;3.03;1.27;;;409.90;1817.60;;;;;;5053088;28;20025;-61
2021/05/28 04:08:35;;;;;;;5.05;1.40;;;410.00;1817.60;;;;;;5052970;28;20021;-60
2021/05/28 04:11:00;;;;;;;2.72;1.10;;;410.00;1792.00;;;;;;5052958;28;20037;-60
2021/05/28 04:13:30;;;;;;;4.20;1.30;;;409.90;1817.60;;;;;;5053366;28;20035;-74
2021/05/28 04:15:58;;;;;;;3.30;1.10;;;410.00;1792.00;;;;;;5052953;28;20029;-61
2021/05/28 04:18:24;;;;;;;5.35;1.33;;;410.00;1792.00;;;;;;5053273;28;20029;-65
2021/05/28 04:20:50;;;;;;;3.67;1.30;;;409.80;1817.60;;;;;;5052973;28;20032;-62
2021/05/28 04:23:16;;;;;;;2.45;1.27;;;409.80;1843.20;;;;;;5053116;28;20024;-59
2021/05/28 04:25:42;;;;;;;2.40;1.20;;;409.80;1817.60;;;;;;5053212;28;20100;-60
2021/05/28 04:28:09;;;;;;;3.42;1.20;;;409.80;1817.60;;;;;;5053079;28;20056;-73
2021/05/28 04:30:35;;;;;;;5.47;1.02;;;410.00;1792.00;;;;;;5056566;28;20048;-60
2021/05/28 04:33:01;;;;;;;3.13;1.23;;;409.90;1817.60;;;;;;5057037;28;20029;-62
2021/05/28 04:35:27;;;;;;;3.72;1.38;;;410.10;1792.00;;;;;;5057043;28;20032;-62
2021/05/28 04:37:52;;;;;;;2.03;1.20;;;410.10;1766.40;;;;;;5056656;28;20079;-60
2021/05/28 04:40:19;;;;;;;2.92;1.17;;;410.10;1792.00;;;;;;5056520;28;20436;-61
2021/05/28 04:42:46;;;;;;;3.03;1.35;;;409.90;1792.00;;;;;;5056782;28;20025;-70
2021/05/28 04:45:12;;;;;;;5.63;1.80;;;409.90;1817.60;;;;;;5057088;28;20033;-61
2021/05/28 04:47:38;;;;;;;2.22;1.33;;;409.90;1792.00;;;;;;5056523;28;20112;-60
2021/05/28 04:50:04;;;;;;;1.45;1.10;;;410.00;1792.00;;;;;;5056448;28;20044;-61
2021/05/28 04:52:30;;;;;;;4.38;1.30;;;409.80;1817.60;;;;;;5056672;28;20029;-61
2021/05/28 04:54:55;;;;;;;2.88;1.23;;;409.80;1817.60;;;;;;5056372;28;20036;-61
2021/05/28 04:57:21;;;;;;;3.22;1.52;;;410.00;1792.00;;;;;;5056416;28;20098;-61
2021/05/28 04:59:47;;;;;;;4.32;1.38;;;410.00;1792.00;;;;;;5056256;28;20397;-60
2021/05/28 05:02:13;;;;;;;4.30;1.17;;;410.10;1792.00;;;;;;5056225;28;20516;-73
2021/05/28 05:04:39;;;;;;;4.65;1.65;;;410.10;1766.40;;;;;;5056525;28;20033;-60
2021/05/28 05:07:05;;;;;;;3.05;1.10;;;410.10;1792.00;;;;;;5056050;28;20025;-60
2021/05/28 05:09:31;;;;;;;1.92;1.20;;;410.00;1792.00;;;;;;5056027;28;20032;-60
2021/05/28 05:11:57;;;;;;;3.13;1.50;;;409.90;1817.60;;;;;;5056261;28;20036;-60
2021/05/28 05:14:22;;;;;;;4.07;1.40;;;409.80;1817.60;;;;;;5055954;28;20021;-59
2021/05/28 05:16:49;;;;;;;4.28;1.40;;;409.70;1843.20;;;;;;5056262;28;20040;-60
2021/05/28 05:19:15;;;;;;;3.72;1.20;;;384.90;1817.60;;;;;;5055860;28;20025;-59
2021/05/28 05:21:41;;;;;;;3.40;1.40;;;409.70;1843.20;;;;;;5056077;28;20033;-60
2021/05/28 05:24:11;;;;;;;3.20;1.40;;;409.80;1817.60;;;;;;5055794;28;20096;-73
2021/05/28 05:26:38;;;;;;;4.25;1.60;;;409.70;1843.20;;;;;;5056029;28;20071;-59
2021/05/28 05:29:04;;;;;;;4.90;1.35;;;409.60;1843.20;;;;;;5055595;28;20063;-60
2021/05/28 05:31:31;;;;;;;3.83;1.58;;;409.60;1843.20;;;;;;5055949;28;20021;-60
2021/05/28 05:33:57;;;;;;;3.53;1.40;;;409.80;1817.60;;;;;;5055989;28;20501;-60
2021/05/28 05:36:26;;;;;;;4.90;1.58;;;409.80;1817.60;;;;;;5055889;28;20025;-60
2021/05/28 05:38:52;;;;;;;2.88;1.52;;;410.00;1792.00;;;;;;5055368;28;20068;-60
2021/05/28 05:41:18;;;;;;;4.50;1.60;;;410.00;1792.00;;;;;;5036420;28;20381;-60
2021/05/28 05:43:44;;;;;;;2.33;1.55;;;410.00;1766.40;;;;;;5055517;28;20025;-60
2021/05/28 05:46:11;;;;;;;5.07;1.35;;;410.00;1792.00;;;;;;5055623;28;20106;-63
2021/05/28 05:48:37;;;;;;;6.45;1.55;;;409.90;1792.00;;;;;;5055679;28;20037;-77
2021/05/28 05:51:03;;;;;;;3.72;1.48;;;410.00;1792.00;;;;;;5055322;28;20042;-74
2021/05/28 05:53:29;;;;;;;6.55;1.60;;;409.80;1792.00;;;;;;5055502;28;20029;-61
2021/05/28 05:55:55;;;;;;;5.90;1.23;;;409.90;1766.40;;;;;;5055626;28;20496;-60
2021/05/28 05:58:21;;;;;;;2.20;1.40;;;409.90;1766.40;;;;;;5055245;28;20041;-60
2021/05/28 06:00:47;;;;;;;5.28;1.58;;;409.80;1792.00;;;;;;5037378;28;20029;-60
2021/05/28 06:03:12;;;;;;;3.28;1.75;;;409.90;1792.00;;;;;;5055142;28;20079;-73
2021/05/28 06:05:38;;;;;;;3.00;1.50;;;409.80;1792.00;;;;;;5055087;28;20477;-60
2021/05/28 06:08:05;;;;;;;4.35;1.63;;;410.00;1766.40;;;;;;5055027;28;20025;-60
2021/05/28 06:10:31;;;;;;;11.02;2.03;;;410.10;1766.40;;;;;;5054851;28;20048;-61
2021/05/28 06:13:09;;;;;;;5.30;1.73;;;410.00;1766.40;;;;;;5054969;28;20025;-73
2021/05/28 06:15:35;;;;;;;9.02;2.03;;;410.00;1766.40;;;;;;5054903;28;20519;-61
2021/05/28 06:18:02;;;;;;;3.55;1.60;;;410.00;1766.40;;;;;;5054807;28;20028;-60
2021/05/28 06:20:29;;;;;;;10.55;2.15;;;410.00;1766.40;;;;;;5054898;28;20049;-61
2021/05/28 06:22:56;;;;;;;3.17;1.70;;;410.30;1740.80;;;;;;5055069;28;20025;-60
2021/05/28 06:25:23;;;;;;;3.45;1.70;;;410.50;1715.20;;;;;;5054800;28;20021;-60
2021/05/28 06:27:49;;;;;;;5.40;2.00;;;410.40;1715.20;;;;;;5054900;28;20581;-61
2021/05/28 06:30:16;;;;;;;4.95;1.88;;;410.30;1715.20;;;;;;5054816;28;20075;-60
2021/05/28 06:32:42;;;;;;;6.47;1.92;;;410.30;1715.20;;;;;;5055123;28;20099;-61
2021/05/28 06:35:08;;;;;;;4.30;1.60;;;410.30;1740.80;;;;;;5054582;28;20104;-61
2021/05/28 06:37:34;;;;;;;5.63;1.92;;;410.20;1740.80;;;;;;5054450;28;20025;-61
2021/05/28 06:39:59;;;;;;;6.00;1.88;;;410.20;1740.80;;;;;;5054307;28;20053;-63
2021/05/28 06:42:25;;;;;;;5.07;1.60;;;410.10;1740.80;;;;;;5054895;28;20382;-62
2021/05/28 06:44:51;;;;;;;12.55;2.38;;;410.00;1740.80;;;;;;5054349;28;20033;-60
2021/05/28 06:47:18;;;;;;;4.18;1.38;;;409.90;1766.40;;;;;;5054378;28;20048;-60
2021/05/28 06:49:44;;;;;;;4.07;1.55;;;409.90;1766.40;;;;;;5054172;28;20041;-60
2021/05/28 06:52:10;;;;;;;8.73;1.80;;;409.80;1766.40;;;;;;5054071;28;20155;-61
2021/05/28 06:54:36;;;;;;;4.13;1.50;;;410.00;1766.40;;;;;;5054215;28;20039;-60
2021/05/28 06:57:03;;;;;;;5.30;1.50;;;410.00;1766.40;;;;;;5054117;28;20025;-60
2021/05/28 06:59:29;;;;;;;5.90;1.70;;;410.00;1740.80;;;;;;5054421;28;20100;-73
2021/05/28 07:01:55;;;;;;;2.88;1.58;;;410.10;1766.40;;;;;;5054040;28;20426;-60
2021/05/28 07:04:22;;;;;;;4.45;1.70;;;410.20;1740.80;;;;;;5054012;28;20035;-60
2021/05/28 07:06:48;;;;;;;3.58;1.80;;;410.30;1715.20;;;;;;5054018;28;20029;-73
2021/05/28 07:09:14;;;;;;;5.03;1.80;;;410.20;1740.80;;;;;;5053764;28;20032;-59
2021/05/28 07:11:40;;;;;;;3.55;1.67;;;410.30;1740.80;;;;;;5054119;28;20028;-61
2021/05/28 07:14:06;;;;;;;4.28;1.60;;;410.10;1740.80;;;;;;5053811;28;20022;-60
2021/05/28 07:16:33;;;;;;;4.38;1.35;;;410.10;1740.80;;;;;;5053767;28;20068;-60
2021/05/28 07:18:59;;;;;;;4.47;1.55;;;410.00;1766.40;;;;;;5053814;28;20017;-60
2021/05/28 07:21:26;;;;;;;5.43;1.60;;;410.00;1740.80;;;;;;5053829;28;20106;-69
2021/05/28 07:23:52;;;;;;;3.72;1.73;;;410.00;1766.40;;;;;;5053672;28;20020;-60
2021/05/28 07:26:18;;;;;;;5.68;1.48;;;410.10;1740.80;;;;;;5053945;28;20068;-61
2021/05/28 07:28:44;;;;;;;5.25;1.80;;;410.10;1740.80;;;;;;5053902;28;20106;-72
2021/05/28 07:31:11;;;;;;;5.78;1.58;;;410.00;1766.40;;;;;;5053453;28;20045;-61
2021/05/28 07:33:37;;;;;;;4.22;1.70;;;410.00;1766.40;;;;;;5053507;28;20044;-61
2021/05/28 07:36:04;;;;;;;6.47;1.85;;;410.00;1766.40;;;;;;5053537;28;20033;-60
2021/05/28 07:38:31;;;;;;;11.50;1.98;;;410.00;1766.40;;;;;;5053376;28;20068;-61
2021/05/28 07:40:57;;;;;;;5.55;1.80;;;410.00;1766.40;;;;;;5053380;28;20068;-60
2021/05/28 07:43:23;;;;;;;4.40;2.10;;;409.80;1792.00;;;;;;5053646;28;20381;-60
2021/05/28 07:45:51;;;;;;;3.42;1.55;;;409.90;1792.00;;;;;;5053253;28;20295;-60
2021/05/28 07:48:20;;;;;;;5.93;2.03;;;410.00;1766.40;;;;;;5053323;28;20025;-60
2021/05/28 07:50:48;;;;;;;10.55;1.85;;;410.00;1766.40;;;;;;5053220;28;20048;-73
2021/05/28 07:53:22;;;;;;;5.00;1.70;;;409.90;1792.00;;;;;;5053628;28;20055;-60
2021/05/28 07:55:49;;;;;;;2.35;1.40;;;409.80;1792.00;;;;;;5053492;28;20033;-60
2021/05/28 07:58:16;;;;;;;4.38;1.80;;;409.80;1792.00;;;;;;5053172;28;20477;-60
2021/05/28 08:00:41;;;;;;;5.20;2.00;;;409.90;1792.00;;;;;;5053199;28;20036;-60
2021/05/28 08:03:08;;;;;;;4.43;1.77;;;409.90;1792.00;;;;;;5053501;28;20021;-73
2021/05/28 08:05:34;;;;;;;6.03;1.95;;;410.00;1792.00;;;;;;5056848;28;20362;-60
2021/05/28 08:08:00;;;;;;;5.35;1.80;;;410.00;1792.00;;;;;;5057320;28;20032;-65
2021/05/28 08:10:27;;;;;;;9.57;2.78;;;410.00;1817.60;;;;;;5057174;28;20104;-74
2021/05/28 08:12:53;;;;;;;10.70;3.20;;;410.10;1792.00;;;;;;5057258;28;20369;-60
2021/05/28 08:15:20;;;;;;;6.45;2.40;;;410.20;1766.40;;;;;;5057160;28;20060;-67
2021/05/28 08:17:46;;;;;;;7.53;1.90;;;410.30;1792.00;;;;;;5056449;28;20020;-73
2021/05/28 08:20:13;;;;;;;7.28;2.17;;;410.40;1766.40;;;;;;5056536;28;20159;-60
2021/05/28 08:22:39;;;;;;;6.43;2.03;;;410.30;1792.00;;;;;;5056396;28;20423;-62
2021/05/28 08:25:05;;;;;;;5.10;2.40;;;410.40;1792.00;;;;;;5056568;28;20033;-73
2021/05/28 08:27:32;;;;;;;3.35;2.10;;;410.50;1766.40;;;;;;5056350;28;20515;-70
2021/05/28 08:29:57;;;;;;;6.78;2.15;;;435.20;1740.80;;;;;;5053809;28;20108;-70
2021/05/28 08:32:24;;;;;;;3.65;2.13;;;435.30;1740.80;;;;;;5056295;28;20159;-79
2021/05/28 08:34:49;;;;;;;7.68;2.45;;;435.40;1715.20;;;;;;5055556;28;20029;-60
2021/05/28 08:37:15;;;;;;;11.18;2.50;;;435.30;1740.80;;;;;;5055430;28;20033;-61
2021/05/28 08:39:41;;;;;;;7.93;2.13;;;435.50;1740.80;;;;;;5055901;28;20037;-62
2021/05/28 08:42:10;;;;;;;4.75;2.03;;;435.60;1715.20;;;;;;5055893;28;20505;-74
2021/05/28 08:44:37;;;;;;;5.30;2.08;;;435.40;1715.20;;;;;;5055652;28;20056;-61
2021/05/28 08:47:04;;;;;;;5.63;2.00;;;435.50;1689.60;;;;;;5055381;28;20509;-60
2021/05/28 08:49:30;;;;;;;9.00;2.42;;;435.40;1715.20;;;;;;5055750;28;20068;-61
2021/05/28 08:51:57;;;;;;;6.78;2.33;;;435.60;1715.20;;;;;;5053584;28;20075;-60
2021/05/28 08:54:24;;;;;;;3.42;2.03;;;435.60;1715.20;;;;;;5056354;28;20028;-60
2021/05/28 08:56:51;;;;;;;10.23;2.65;;;435.70;1689.60;;;;;;5055847;28;20040;-60
2021/05/28 08:59:18;;;;;;;5.97;1.70;;;435.80;1689.60;;;;;;5054878;28;20031;-63
2021/05/28 09:01:44;;;;;;;3.30;1.35;;;435.90;1664.00;;;;;;5054388;28;20032;-77
2021/05/28 09:04:11;;;;;;;6.22;1.83;;;435.90;1638.40;;;;;;5055029;28;20025;-60
2021/05/28 09:06:40;;;;;;;9.18;1.95;;;436.00;1612.80;;;;;;5055739;28;20111;-60
2021/05/28 09:09:10;;;;;;;3.17;1.42;;;460.80;1612.80;;;;;;5054636;28;20040;-61
2021/05/28 09:11:57;;;;;;;5.25;1.70;;;436.10;1587.20;;;;;;5054350;28;20571;-61
2021/05/28 09:14:40;;;;;;;4.28;1.30;;;460.80;1587.20;;;;;;5052897;28;20071;-68
2021/05/28 09:17:08;;;;;;;6.55;1.73;;;436.10;1587.20;;;;;;5053479;28;20021;-61
2021/05/28 09:19:35;;;;;;;3.92;1.52;;;436.10;1587.20;;;;;;5054534;28;20428;-61
2021/05/28 09:22:09;;;;;;;7.68;2.00;;;460.80;1638.40;;;;;;5050854;28;20046;-61
2021/05/28 09:24:38;;;;;;;9.77;1.83;;;460.90;1561.60;;;;;;5053429;28;20074;-75
2021/05/28 09:27:31;;;;;;;6.35;2.05;;;460.90;1561.60;;;;;;5050854;28;20099;-60
2021/05/28 09:30:04;;;;;;;2.47;1.58;;;461.00;1561.60;;;;;;5053032;28;20048;-60
2021/05/28 09:32:30;;;;;;;4.10;1.85;;;461.10;1587.20;;;;;;5053192;28;20112;-61
2021/05/28 09:34:57;;;;;;;4.72;1.30;;;461.20;1587.20;;;;;;5051210;28;20494;-76
2021/05/28 09:37:43;;;;;;;9.75;1.83;;;461.20;1561.60;;;;;;5037151;28;20024;-70
2021/05/28 09:40:18;;;;;;;2.70;1.27;;;461.30;1536.00;;;;;;5053776;28;20091;-60
2021/05/28 09:42:56;;;;;;;3.35;1.25;;;461.50;1536.00;;;;;;5053124;28;20016;-61
2021/05/28 09:45:29;;;;;;;6.75;1.10;;;461.40;1510.40;;;;;;5053139;28;20017;-60
2021/05/28 09:47:56;;;;;;;5.63;1.10;;;461.60;1459.20;;;;;;5055308;28;20021;-71
2021/05/28 09:50:22;;;;;;;3.58;1.70;;;461.70;1459.20;;;;;;5054696;28;20033;-76
2021/05/28 09:52:49;;;;;;;6.45;1.10;;;461.70;1382.40;;;;;;5055054;28;20071;-63
2021/05/28 09:55:16;;;;;;;2.47;0.93;;;486.40;1408.00;;;;;;5055008;28;20021;-61
2021/05/28 09:57:49;;;;;;;5.85;1.50;;;486.50;1382.40;;;;;;5053118;28;20021;-61
2021/05/28 10:00:32;;;;;;;4.25;1.30;;;486.60;1408.00;;;;;;5053150;28;20025;-61
2021/05/28 10:03:12;;;;;;;4.47;1.20;;;486.80;1382.40;;;;;;5053145;28;20021;-61
2021/05/28 10:05:40;;;;;;;3.08;0.90;;;486.90;1356.80;;;;;;5052965;28;20385;-61
2021/05/28 10:08:07;;;;;;;3.55;1.08;;;486.90;1331.20;;;;;;5052908;28;20024;-62
2021/05/28 10:10:35;;;;;;;5.75;1.23;;;487.10;1356.80;;;;;;5035084;28;20382;-62
2021/05/28 10:13:11;;;;;;;5.38;1.58;;;487.10;1356.80;;;;;;5054827;28;20071;-76
2021/05/28 10:15:46;;;;;;;7.50;1.42;;;487.10;1331.20;;;;;;5054958;28;20060;-76
2021/05/28 10:18:12;;;;;;;10.00;1.42;;;487.20;1331.20;;;;;;5054935;28;20441;-74
2021/05/28 10:20:41;;;;;;;4.68;1.00;;;487.30;1305.60;;;;;;5036842;28;20024;-73
2021/05/28 10:23:08;;;;;;;6.55;1.20;;;512.00;1280.00;;;;;;5054687;28;20043;-62
2021/05/28 10:25:35;;;;;;;9.07;1.23;;;512.00;1280.00;;;;;;5054617;28;20017;-61
2021/05/28 10:28:05;;;;;;;2.80;1.17;;;512.10;1280.00;;;;;;5053890;28;20020;-68
2021/05/28 10:30:42;;;;;;;3.95;0.93;;;512.10;1305.60;;;;;;5054349;28;20417;-61
2021/05/28 10:33:28;;;;;;;2.38;0.90;;;512.20;1254.40;;;;;;5054432;28;20041;-62
2021/05/28 10:36:05;;;;;;;6.93;1.40;;;512.20;1254.40;;;;;;5054424;28;20078;-68
2021/05/28 10:38:30;;;;;;;5.57;1.15;;;512.30;1280.00;;;;;;5054157;28;20382;-68
2021/05/28 10:41:05;;;;;;;5.43;1.27;;;512.40;1254.40;;;;;;5053989;28;20079;-68
2021/05/28 10:43:33;;;;;;;4.15;1.90;;;512.40;1254.40;;;;;;5054133;28;20017;-58
2021/05/28 10:46:02;;;;;;;2.55;1.10;;;512.50;1305.60;;;;;;5054145;28;20469;-69
2021/05/28 10:48:37;;;;;;;5.32;1.30;;;512.60;1254.40;;;;;;5054033;28;20021;-68
2021/05/28 10:51:08;;;;;;;8.05;1.65;;;512.60;1254.40;;;;;;5053988;28;20029;-58
2021/05/28 10:53:35;;;;;;;5.68;1.13;;;512.70;1280.00;;;;;;5054201;28;20381;-67
2021/05/28 10:56:12;;;;;;;4.65;1.60;;;512.90;1305.60;;;;;;5053915;28;20025;-69
2021/05/28 10:58:49;;;;;;;4.60;1.20;;;537.60;1305.60;;;;;;5053919;28;20056;-68
2021/05/28 11:01:57;;;;;;;6.15;1.38;;;537.60;1305.60;;;;;;5053662;28;20052;-64
2021/05/28 11:04:27;;;;;;;5.03;1.23;;;537.70;1254.40;;;;;;5052336;28;20033;-58
2021/05/28 11:06:57;;;;;;;11.13;1.75;;;537.80;1228.80;;;;;;5054300;28;20436;-58
2021/05/28 11:09:43;;;;;;;4.88;1.17;;;537.80;1177.60;;;;;;5053472;28;20060;-58
2021/05/28 11:12:14;;;;;;;5.45;1.40;;;537.80;1203.20;;;;;;5053379;28;20025;-58
2021/05/28 11:15:00;;;;;;;5.40;1.52;;;537.90;1203.20;;;;;;5051964;28;20021;-57
2021/05/28 11:17:26;;;;;;;2.17;0.98;;;537.90;1152.00;;;;;;5033968;28;20039;-57
2021/05/28 11:20:00;;;;;;;2.92;0.90;;;537.90;1100.80;;;;;;5051833;28;20021;-58
2021/05/28 11:22:38;;;;;;;29.00;2.30;;;538.00;1100.80;;;;;;5051882;28;20021;-58
2021/05/28 11:25:08;;;;;;;10.35;1.30;;;538.00;1152.00;;;;;;5051756;28;20025;-58
2021/05/28 11:27:34;;;;;;;4.65;0.98;;;538.10;1126.40;;;;;;5051852;28;20096;-58
2021/05/28 11:30:03;;;;;;;9.68;1.17;;;538.10;1100.80;;;;;;5053478;28;20112;-57
2021/05/28 11:32:37;;;;;;;3.25;0.77;;;538.30;1126.40;;;;;;5053502;28;20027;-57
2021/05/28 11:35:19;;;;;;;5.20;0.70;;;538.30;1126.40;;;;;;5053511;28;20021;-57
2021/05/28 11:38:04;;;;;;;3.70;1.08;;;538.30;1126.40;;;;;;5053383;28;20024;-67
2021/05/28 11:40:36;;;;;;;6.28;1.10;;;538.40;1152.00;;;;;;5053250;28;20049;-57
2021/05/28 11:43:16;;;;;;;7.53;1.27;;;538.40;1100.80;;;;;;5053626;28;20523;-58
2021/05/28 11:45:46;;;;;;;177.77;26.40;;;538.40;1075.20;;;;;;5053387;28;20029;-58
2021/05/28 11:48:16;;;;;;;43.22;7.63;;;538.50;1075.20;;;;;;5053353;28;20025;-58
2021/05/28 11:50:50;;;;;;;9.50;1.23;;;538.50;1100.80;;;;;;5053281;28;20040;-58
2021/05/28 11:53:17;;;;;;;4.30;0.85;;;563.20;1152.00;;;;;;5053385;28;20071;-57
2021/05/28 11:55:49;;;;;;;23.05;1.67;;;563.30;1126.40;;;;;;5035450;28;20412;-58
2021/05/28 11:58:20;;;;;;;4.78;0.93;;;563.40;1100.80;;;;;;5053371;28;20021;-57
2021/05/28 12:00:49;;;;;;;3.92;0.98;;;563.30;1075.20;;;;;;5053261;28;20075;-58
2021/05/28 12:03:15;;;;;;;1.45;0.60;;;563.40;1075.20;;;;;;5054363;28;20519;-65
2021/05/28 12:05:43;;;;;;;6.60;1.02;;;563.40;1100.80;;;;;;5059657;28;20104;-58
2021/05/28 12:08:19;;;;;;;13.93;2.03;;;563.50;1126.40;;;;;;5063579;28;20024;-58
2021/05/28 12:10:49;;;;;;;8.05;1.13;;;563.50;1152.00;;;;;;5057185;28;20405;-58
2021/05/28 12:13:17;;;;;;;5.55;1.35;;;563.60;1100.80;;;;;;5069374;28;20056;-58
2021/05/28 12:15:49;;;;;;;13.93;2.05;;;563.60;1100.80;;;;;;5059933;28;20027;-58
2021/05/28 12:18:27;;;;;;;5.55;1.27;;;563.70;1075.20;;;;;;5061232;28;20021;-58
2021/05/28 12:21:05;;;;;;;4.03;0.93;;;563.60;1100.80;;;;;;5062128;28;20370;-58
2021/05/28 12:23:39;;;;;;;7.28;1.15;;;563.70;1100.80;;;;;;5067360;28;20021;-58